»·PEaware :: N915TB KSNA-KSBP

N915TB :: KSNA-KSBP

FLIGHT INFORMATION

Flight Status: Arrived
Operator: Privately registered:
United States
More flights under this callsign
Pilot: Jake M. (20491)
Aircraft: SOCATA TBM-900
(TBM9)
More flights by this aircraft type
Origin: KSNA John Wayne-Orange Co
United States
Destination: KSBP San Luis Co Regl
United States
More flights between these airports :: More routes between these airports
Route: +
File this flight plan on PilotEdge
Remarks:
Altitude:
(Current/Filed)
11,500ft
Speed:
(Current/Filed)
280kts
Departed: 19-Oct-19 06:57 PM
Arrived: 19-Oct-19 07:46 PM
Distance/Time
Traveled:
166nm/0:49
Distance/Time
To Go:
Arrived

Flight Plot

Page will automatically refresh every two minutes.


Map Options




Map Legend


Flown Route
Filed Route
Departure Airport
Arrival Airport
Navaid (VOR, NDB)
Fix

Horizontal Profiles

Position Reports

Time Latitude Longitude Heading Altitude Ground
Speed
19-Oct-19 18:50 33.675815 -117.870837 210 49ft 0kts
19-Oct-19 18:51 33.675815 -117.870837 210 49ft 0kts
19-Oct-19 18:52 33.676171 -117.870044 27 49ft 17kts
19-Oct-19 18:53 33.681271 -117.866805 78 41ft 11kts
19-Oct-19 18:54 33.681237 -117.866472 117 40ft 0kts
19-Oct-19 18:55 33.681158 -117.866296 118 40ft 8kts
19-Oct-19 18:56 33.666360 -117.875854 227 694ft 120kts
19-Oct-19 18:57 33.648326 -117.917725 241 2427ft 167kts
19-Oct-19 18:58 33.623930 -117.971132 241 2977ft 188kts
19-Oct-19 18:59 33.596950 -118.027597 241 4697ft 200kts
19-Oct-19 19:00 33.568546 -118.083847 241 6516ft 212kts
19-Oct-19 19:01 33.553150 -118.148816 282 8346ft 191kts
19-Oct-19 19:02 33.571820 -118.199216 309 11051ft 159kts
19-Oct-19 19:03 33.599857 -118.240095 309 13258ft 162kts
19-Oct-19 19:04 33.628711 -118.281269 309 15239ft 166kts
19-Oct-19 19:05 33.659680 -118.325335 309 16459ft 195kts
19-Oct-19 19:06 33.698799 -118.381028 309 16483ft 230kts
19-Oct-19 19:07 33.741308 -118.441619 309 16480ft 240kts
19-Oct-19 19:08 33.784728 -118.503611 309 16478ft 243kts
19-Oct-19 19:09 33.828284 -118.565906 309 16477ft 243kts
19-Oct-19 19:10 33.871902 -118.628409 309 16476ft 243kts
19-Oct-19 19:11 33.915643 -118.691181 309 16482ft 245kts
19-Oct-19 19:12 33.959538 -118.754293 309 16499ft 245kts
19-Oct-19 19:13 34.001619 -118.818933 301 16495ft 245kts
19-Oct-19 19:14 34.044259 -118.882338 309 16493ft 240kts
19-Oct-19 19:16 34.087265 -118.943530 309 16492ft 238kts
19-Oct-19 19:17 34.130432 -119.004839 308 16515ft 237kts
19-Oct-19 19:18 34.173127 -119.065733 308 16500ft 236kts
19-Oct-19 19:19 34.215313 -119.125938 308 16518ft 234kts
19-Oct-19 19:20 34.257682 -119.186486 308 16520ft 235kts
19-Oct-19 19:21 34.300101 -119.247242 308 16521ft 236kts
19-Oct-19 19:22 34.342249 -119.307686 308 16520ft 235kts
19-Oct-19 19:23 34.384545 -119.368453 308 16516ft 235kts
19-Oct-19 19:24 34.426782 -119.429244 308 16520ft 236kts
19-Oct-19 19:25 34.469120 -119.490286 308 16515ft 234kts
19-Oct-19 19:26 34.511150 -119.550984 308 16513ft 234kts
19-Oct-19 19:27 34.553099 -119.611665 308 16514ft 234kts
19-Oct-19 19:28 34.595326 -119.672878 307 16329ft 241kts
19-Oct-19 19:29 34.640073 -119.737831 308 15189ft 255kts
19-Oct-19 19:30 34.686103 -119.804789 308 14030ft 260kts
19-Oct-19 19:31 34.732448 -119.872316 308 12871ft 261kts
19-Oct-19 19:32 34.779143 -119.940523 309 11699ft 261kts
19-Oct-19 19:33 34.825610 -120.008527 310 10553ft 263kts
19-Oct-19 19:34 34.872430 -120.077149 311 9398ft 260kts
19-Oct-19 19:34 34.910349 -120.132806 311 8453ft 253kts
19-Oct-19 19:36 34.962614 -120.209669 312 7144ft 251kts
19-Oct-19 19:37 35.007356 -120.275633 312 6024ft 252kts
19-Oct-19 19:37 35.044517 -120.330524 312 5086ft 237kts
19-Oct-19 19:38 35.082515 -120.386753 313 3896ft 198kts
19-Oct-19 19:40 35.118951 -120.440861 313 3267ft 135kts
19-Oct-19 19:40 35.141958 -120.478120 311 3314ft 177kts
19-Oct-19 19:41 35.171964 -120.527163 310 2613ft 185kts
19-Oct-19 19:42 35.199199 -120.574117 305 1542ft 146kts
19-Oct-19 19:43 35.218870 -120.608621 306 828ft 102kts
19-Oct-19 19:44 35.235312 -120.637316 305 202ft 89kts
19-Oct-19 19:45 35.239964 -120.643856 41 175ft 0kts
19-Oct-19 19:46 35.239363 -120.642490 129 180ft 12kts
19-Oct-19 19:47 35.237946 -120.638915 90 194ft 0kts
19-Oct-19 19:48 35.237946 -120.638915 90 194ft 0kts

Navigation Log

Ident Type
Flight plan parsing failed, navigation log unavailable